Time;durP1;ratioP1;P1;durP2;ratioP2;P2;SDS_P1;SDS_P2;PMS_P1;PMS_P2;Temp;Humidity;BMP_temperature;BMP_pressure;BME280_temperature;BME280_humidity;BME280_pressure;Samples;Min_cycle;Max_cycle;Signal;HPM_P1;HPM_P2
2021/05/10 00:00:39;;;;;;;4.30;3.85;;;18.80;90.40;;;;;;5073365;28;20488;-80
2021/05/10 00:03:05;;;;;;;3.28;2.95;;;18.80;90.50;;;;;;5072089;28;20028;-80
2021/05/10 00:05:30;;;;;;;3.90;2.60;;;18.80;90.40;;;;;;5073239;28;20024;-80
2021/05/10 00:07:56;;;;;;;3.83;2.63;;;18.80;90.40;;;;;;5073310;28;20036;-80
2021/05/10 00:10:21;;;;;;;3.22;2.65;;;18.80;90.40;;;;;;5073155;28;20537;-80
2021/05/10 00:12:48;;;;;;;3.25;2.90;;;18.80;90.50;;;;;;5071913;28;20492;-80
2021/05/10 00:15:14;;;;;;;4.90;3.47;;;18.70;90.60;;;;;;5073147;28;20059;-80
2021/05/10 00:17:40;;;;;;;4.03;3.60;;;18.60;90.90;;;;;;5073150;28;20476;-80
2021/05/10 00:20:06;;;;;;;5.10;4.45;;;18.50;91.30;;;;;;5071921;28;20043;-80
2021/05/10 00:22:32;;;;;;;6.53;4.30;;;18.30;91.80;;;;;;5073050;28;20024;-80
2021/05/10 00:24:57;;;;;;;4.90;4.20;;;18.20;92.20;;;;;;5072910;28;20046;-80
2021/05/10 00:27:23;;;;;;;3.50;3.20;;;18.20;92.20;;;;;;5073090;28;20158;-80
2021/05/10 00:29:49;;;;;;;4.00;3.00;;;18.20;92.10;;;;;;5073119;28;20345;-80
2021/05/10 00:32:14;;;;;;;3.88;3.03;;;18.30;92.10;;;;;;5071801;28;20392;-80
2021/05/10 00:34:40;;;;;;;4.50;3.35;;;18.30;92.00;;;;;;5071637;28;20613;-80
2021/05/10 00:37:05;;;;;;;5.40;3.45;;;18.30;91.90;;;;;;5072930;28;20032;-80
2021/05/10 00:39:31;;;;;;;4.72;3.78;;;18.30;92.00;;;;;;5073050;28;20017;-80
2021/05/10 00:41:57;;;;;;;5.78;4.18;;;18.30;92.30;;;;;;5072747;28;20452;-80
2021/05/10 00:44:23;;;;;;;5.93;4.30;;;18.30;92.20;;;;;;5071748;28;20027;-80
2021/05/10 00:46:52;;;;;;;4.35;3.90;;;18.20;92.20;;;;;;5072831;28;20032;-80
2021/05/10 00:49:17;;;;;;;4.05;2.90;;;18.20;92.30;;;;;;5071729;28;20067;-81
2021/05/10 00:51:43;;;;;;;4.25;3.25;;;18.10;92.40;;;;;;5071520;28;20033;-80
2021/05/10 00:54:08;;;;;;;4.28;3.33;;;18.10;92.50;;;;;;5072916;28;20056;-80
2021/05/10 00:56:34;;;;;;;4.32;3.92;;;18.00;92.60;;;;;;5071276;28;20024;-80
2021/05/10 00:59:00;;;;;;;4.70;3.70;;;18.00;92.80;;;;;;5071409;28;20024;-80
2021/05/10 01:01:25;;;;;;;9.23;6.07;;;18.00;92.80;;;;;;5071363;28;20021;-80
2021/05/10 01:03:53;;;;;;;6.35;5.75;;;18.00;93.10;;;;;;5072745;28;20051;-80
2021/05/10 01:06:19;;;;;;;5.85;5.13;;;17.90;93.40;;;;;;5072673;28;20380;-81
2021/05/10 01:08:45;;;;;;;6.15;5.03;;;17.90;93.20;;;;;;5074246;28;20029;-81
2021/05/10 01:11:10;;;;;;;6.40;5.72;;;17.80;93.30;;;;;;5076321;28;20029;-80
2021/05/10 01:13:36;;;;;;;6.07;5.38;;;17.80;93.30;;;;;;5076540;28;20099;-81
2021/05/10 01:16:02;;;;;;;5.47;4.75;;;17.70;93.40;;;;;;5074961;28;20021;-81
2021/05/10 01:18:27;;;;;;;6.53;5.95;;;17.70;93.50;;;;;;5076384;28;20025;-80
2021/05/10 01:20:55;;;;;;;6.05;4.82;;;17.70;93.70;;;;;;5076287;28;20020;-80
2021/05/10 01:23:21;;;;;;;4.72;4.00;;;17.60;93.80;;;;;;5075006;28;20016;-80
2021/05/10 01:25:47;;;;;;;5.95;4.05;;;17.60;93.90;;;;;;5074828;28;20434;-80
2021/05/10 01:28:13;;;;;;;5.45;4.18;;;17.60;93.80;;;;;;5074831;28;20021;-80
2021/05/10 01:30:41;;;;;;;4.30;3.90;;;17.60;93.80;;;;;;5074960;28;20028;-80
2021/05/10 01:33:08;;;;;;;4.78;3.97;;;17.60;93.80;;;;;;5074591;28;20102;-80
2021/05/10 01:35:37;;;;;;;4.10;3.70;;;17.60;93.80;;;;;;5075997;28;20480;-80
2021/05/10 01:38:03;;;;;;;3.65;3.35;;;17.60;93.90;;;;;;5074803;28;20025;-80
2021/05/10 01:40:29;;;;;;;5.35;3.10;;;17.60;93.90;;;;;;5074697;28;20388;-81
2021/05/10 01:42:55;;;;;;;4.47;3.50;;;17.50;93.90;;;;;;5075847;28;20039;-81
2021/05/10 01:45:21;;;;;;;3.95;3.53;;;17.50;94.00;;;;;;5075863;28;20032;-80
2021/05/10 01:47:47;;;;;;;5.88;2.95;;;17.40;94.00;;;;;;5075744;28;20047;-80
2021/05/10 01:50:17;;;;;;;4.30;3.53;;;17.40;94.10;;;;;;5075835;28;20025;-80
2021/05/10 01:52:43;;;;;;;4.68;3.38;;;17.40;94.10;;;;;;5075754;28;20388;-80
2021/05/10 01:55:10;;;;;;;4.28;2.97;;;17.40;94.00;;;;;;5074402;28;20020;-80
2021/05/10 01:57:36;;;;;;;3.05;2.47;;;17.50;93.80;;;;;;5074209;28;20028;-80
2021/05/10 02:00:11;;;;;;;3.47;2.00;;;17.60;93.50;;;;;;5074482;28;20025;-80
2021/05/10 02:02:37;;;;;;;2.83;2.42;;;17.70;93.20;;;;;;5075600;28;20074;-80
2021/05/10 02:05:07;;;;;;;5.07;2.65;;;17.70;93.10;;;;;;5075588;28;20025;-80
2021/05/10 02:07:35;;;;;;;2.67;2.40;;;17.80;93.00;;;;;;5074195;28;20484;-80
2021/05/10 02:10:00;;;;;;;2.75;2.08;;;17.70;93.00;;;;;;5074147;28;20029;-80
2021/05/10 02:12:26;;;;;;;2.90;2.03;;;17.70;93.00;;;;;;5074008;28;20086;-80
2021/05/10 02:14:52;;;;;;;2.47;2.28;;;17.70;93.00;;;;;;5075390;28;20025;-80
2021/05/10 02:17:18;;;;;;;2.60;2.40;;;17.60;93.10;;;;;;5075122;28;20434;-80
2021/05/10 02:19:43;;;;;;;3.92;2.60;;;17.60;93.20;;;;;;5073880;28;20023;-80
2021/05/10 02:22:09;;;;;;;4.45;2.20;;;17.60;93.30;;;;;;5073848;28;20025;-80
2021/05/10 02:24:38;;;;;;;4.55;2.28;;;17.60;93.40;;;;;;5074021;28;20021;-80
2021/05/10 02:27:04;;;;;;;2.88;2.13;;;17.50;93.40;;;;;;5075128;28;20029;-80
2021/05/10 02:29:30;;;;;;;3.10;1.80;;;17.50;93.60;;;;;;5075078;28;20029;-80
2021/05/10 02:31:56;;;;;;;4.95;2.50;;;17.50;93.70;;;;;;5073664;28;20484;-80
2021/05/10 02:34:22;;;;;;;3.13;1.92;;;17.50;93.70;;;;;;5074771;28;20059;-80
2021/05/10 02:36:48;;;;;;;2.17;1.98;;;17.50;94.00;;;;;;5074821;28;20025;-80
2021/05/10 02:39:13;;;;;;;2.40;1.75;;;17.50;93.70;;;;;;5073773;28;20017;-80
2021/05/10 02:41:39;;;;;;;1.88;1.60;;;17.50;93.80;;;;;;5074902;28;20522;-80
2021/05/10 02:44:04;;;;;;;3.13;2.38;;;17.40;93.80;;;;;;5074625;28;20025;-80
2021/05/10 02:46:30;;;;;;;2.22;1.67;;;17.40;93.80;;;;;;5073589;28;20526;-80
2021/05/10 02:48:56;;;;;;;2.30;1.90;;;17.40;93.80;;;;;;5073380;28;20070;-80
2021/05/10 02:51:22;;;;;;;3.80;2.20;;;17.40;93.70;;;;;;5073591;28;20028;-80
2021/05/10 02:53:47;;;;;;;3.97;3.28;;;17.50;93.50;;;;;;5073340;28;20123;-80
2021/05/10 02:56:13;;;;;;;3.97;3.58;;;17.50;92.90;;;;;;5074452;28;20064;-80
2021/05/10 02:58:38;;;;;;;4.95;3.78;;;17.60;92.30;;;;;;5073085;28;20017;-80
2021/05/10 03:01:04;;;;;;;4.63;3.70;;;17.70;91.70;;;;;;5074446;28;20037;-80
2021/05/10 03:03:29;;;;;;;4.93;3.15;;;17.70;91.30;;;;;;5073115;28;20031;-81
2021/05/10 03:05:55;;;;;;;7.18;3.10;;;17.80;91.10;;;;;;5073044;28;20047;-80
2021/05/10 03:08:20;;;;;;;4.78;3.22;;;17.80;90.80;;;;;;5074271;28;20036;-80
2021/05/10 03:10:46;;;;;;;5.35;3.00;;;17.80;90.80;;;;;;5074248;28;20050;-80
2021/05/10 03:13:11;;;;;;;3.92;2.13;;;17.70;90.30;;;;;;5074242;28;20029;-80
2021/05/10 03:15:37;;;;;;;3.85;1.30;;;17.70;88.00;;;;;;5073918;28;20033;-80
2021/05/10 03:18:02;;;;;;;2.58;1.20;;;17.80;85.60;;;;;;5074079;28;20021;-80
2021/05/10 03:20:28;;;;;;;5.32;1.25;;;18.00;84.80;;;;;;5074144;28;20473;-80
2021/05/10 03:22:53;;;;;;;2.50;1.20;;;18.20;83.30;;;;;;5072734;28;20023;-80
2021/05/10 03:25:21;;;;;;;2.58;1.20;;;18.30;83.70;;;;;;5072977;28;20097;-80
2021/05/10 03:27:47;;;;;;;2.85;1.10;;;18.40;82.20;;;;;;5072655;28;20503;-80
2021/05/10 03:30:15;;;;;;;6.07;1.17;;;18.50;81.00;;;;;;5072595;28;20028;-80
2021/05/10 03:32:42;;;;;;;2.03;0.80;;;18.50;80.80;;;;;;5073173;28;20100;-80
2021/05/10 03:35:10;;;;;;;2.27;1.20;;;18.50;80.10;;;;;;5072391;28;20036;-80
2021/05/10 03:37:35;;;;;;;4.03;0.95;;;18.60;78.40;;;;;;5073709;28;20225;-80
2021/05/10 03:40:01;;;;;;;2.20;0.82;;;18.80;77.40;;;;;;5073756;28;20070;-80
2021/05/10 03:42:27;;;;;;;2.90;0.70;;;18.90;77.10;;;;;;5072507;28;20031;-80
2021/05/10 03:44:53;;;;;;;4.93;1.02;;;18.90;77.00;;;;;;5072254;28;20028;-80
2021/05/10 03:47:19;;;;;;;2.53;0.82;;;19.00;77.00;;;;;;5073452;28;20016;-80
2021/05/10 03:49:45;;;;;;;3.10;1.50;;;19.00;76.30;;;;;;5073734;28;20017;-80
2021/05/10 03:52:11;;;;;;;3.47;0.93;;;18.90;76.30;;;;;;5072073;28;20111;-80
2021/05/10 03:54:36;;;;;;;4.25;1.05;;;18.90;76.20;;;;;;5073555;28;20020;-80
2021/05/10 03:57:02;;;;;;;6.10;1.10;;;18.90;76.00;;;;;;5073039;28;20476;-80
2021/05/10 03:59:28;;;;;;;3.00;0.65;;;19.00;74.70;;;;;;5073400;28;20042;-80
2021/05/10 04:01:55;;;;;;;3.17;0.75;;;19.00;75.20;;;;;;5059106;28;20025;-80
2021/05/10 04:04:26;;;;;;;2.55;0.82;;;19.10;73.90;;;;;;5052768;28;20108;-80
2021/05/10 04:14:36;;;;;;;2.88;0.80;;;19.30;72.00;;;;;;5053569;28;20063;-80
2021/05/10 04:17:01;;;;;;;6.13;0.90;;;19.40;71.50;;;;;;5083721;28;20052;-80
2021/05/10 04:19:27;;;;;;;2.92;0.80;;;19.40;71.70;;;;;;5073189;28;20033;-80
2021/05/10 04:21:52;;;;;;;2.83;0.80;;;19.40;71.60;;;;;;5071942;28;20487;-80
2021/05/10 04:24:18;;;;;;;1.50;0.60;;;19.40;71.10;;;;;;5073139;28;20023;-80
2021/05/10 04:26:43;;;;;;;1.20;0.70;;;19.40;71.40;;;;;;5073185;28;20365;-80
2021/05/10 04:29:09;;;;;;;2.95;1.35;;;19.40;70.50;;;;;;5072858;28;20395;-80
2021/05/10 04:31:34;;;;;;;3.88;1.08;;;19.40;70.70;;;;;;5071676;28;20532;-80
2021/05/10 04:34:00;;;;;;;1.95;0.70;;;19.40;70.70;;;;;;5072874;28;20052;-80
2021/05/10 04:36:25;;;;;;;2.00;0.70;;;19.40;70.50;;;;;;5072854;28;20033;-80
2021/05/10 04:38:51;;;;;;;3.95;0.90;;;19.40;70.60;;;;;;5072999;28;20031;-80
2021/05/10 04:41:16;;;;;;;3.08;0.80;;;19.40;70.50;;;;;;5072979;28;20028;-80
2021/05/10 04:43:42;;;;;;;1.52;0.68;;;19.40;69.80;;;;;;5052513;28;20468;-80
2021/05/10 04:46:07;;;;;;;2.83;1.08;;;19.50;70.80;;;;;;5055546;28;20111;-80
2021/05/10 04:48:33;;;;;;;2.50;0.82;;;19.50;70.00;;;;;;5071748;28;20029;-80
2021/05/10 04:50:58;;;;;;;4.05;0.90;;;19.60;70.10;;;;;;5076800;28;20070;-80
2021/05/10 04:53:24;;;;;;;2.42;1.00;;;19.60;70.30;;;;;;5076628;28;20028;-80
2021/05/10 04:55:50;;;;;;;5.72;1.00;;;19.60;71.20;;;;;;5075574;28;20399;-80
2021/05/10 04:58:15;;;;;;;6.10;1.38;;;19.60;72.10;;;;;;5076687;28;20025;-81
2021/05/10 05:00:41;;;;;;;3.47;0.98;;;19.40;73.30;;;;;;5075584;28;20017;-80
2021/05/10 05:03:06;;;;;;;4.95;1.42;;;19.20;74.60;;;;;;5076665;28;20485;-80
2021/05/10 05:05:32;;;;;;;5.45;1.63;;;19.10;74.80;;;;;;5076729;28;20025;-80
2021/05/10 05:07:57;;;;;;;3.35;1.00;;;19.20;73.90;;;;;;5075817;28;20035;-81
2021/05/10 05:10:23;;;;;;;2.80;1.40;;;19.30;74.80;;;;;;5075666;28;20029;-80
2021/05/10 05:12:49;;;;;;;4.97;1.40;;;19.20;75.70;;;;;;5074812;28;20020;-80
2021/05/10 05:15:15;;;;;;;4.40;1.00;;;19.20;76.70;;;;;;5075869;28;20029;-80
2021/05/10 05:17:41;;;;;;;9.75;1.15;;;19.10;77.30;;;;;;5075645;28;20022;-80
2021/05/10 05:20:07;;;;;;;7.90;1.58;;;19.10;77.80;;;;;;5074654;28;20033;-80
2021/05/10 05:22:34;;;;;;;13.77;1.27;;;19.00;78.40;;;;;;5075830;28;20016;-79
2021/05/10 05:25:00;;;;;;;9.55;1.20;;;18.90;79.00;;;;;;5074541;28;20023;-80
2021/05/10 05:27:26;;;;;;;4.90;1.23;;;18.90;79.50;;;;;;5075704;28;20021;-79
2021/05/10 05:29:52;;;;;;;3.38;1.17;;;18.80;80.40;;;;;;5074607;28;20024;-80
2021/05/10 05:32:18;;;;;;;3.58;1.10;;;18.70;80.70;;;;;;5091256;28;20043;-80
2021/05/10 05:34:43;;;;;;;4.40;1.05;;;18.60;81.30;;;;;;5074197;28;20479;-80
2021/05/10 05:37:09;;;;;;;6.93;2.45;;;18.60;81.70;;;;;;5074260;28;20506;-80
2021/05/10 05:39:34;;;;;;;7.00;1.52;;;18.50;82.20;;;;;;5074399;28;20070;-80
2021/05/10 05:42:00;;;;;;;4.90;1.23;;;18.50;83.00;;;;;;5074301;28;20103;-80
2021/05/10 05:44:26;;;;;;;6.20;1.60;;;18.40;83.30;;;;;;5074165;28;20016;-79
2021/05/10 05:46:59;;;;;;;3.45;0.95;;;18.40;84.20;;;;;;5073983;28;20024;-80
2021/05/10 05:49:25;;;;;;;4.63;1.25;;;18.30;84.00;;;;;;5075421;28;20472;-80
2021/05/10 05:51:50;;;;;;;4.95;1.17;;;18.20;84.70;;;;;;5075459;28;20024;-80
2021/05/10 05:54:16;;;;;;;2.08;0.68;;;18.20;84.50;;;;;;5073559;28;20025;-80
2021/05/10 05:56:42;;;;;;;2.00;0.70;;;18.20;84.40;;;;;;5075115;28;20029;-79
2021/05/10 05:59:08;;;;;;;4.18;1.13;;;18.20;85.10;;;;;;5075374;28;20423;-80
2021/05/10 06:01:34;;;;;;;2.67;0.85;;;18.10;85.40;;;;;;5073986;28;20012;-80
2021/05/10 06:03:59;;;;;;;2.67;0.70;;;18.10;85.00;;;;;;5073813;28;20021;-80
2021/05/10 06:06:25;;;;;;;1.17;0.32;;;18.10;81.60;;;;;;5075033;28;20549;-80
2021/05/10 06:08:51;;;;;;;0.88;0.40;;;18.10;81.60;;;;;;5073788;28;20479;-80
2021/05/10 06:11:16;;;;;;;0.40;0.40;;;18.00;81.00;;;;;;5073282;28;20025;-81
2021/05/10 06:13:42;;;;;;;5.47;0.32;;;18.00;82.30;;;;;;5073807;28;20029;-79
2021/05/10 06:16:09;;;;;;;1.55;0.20;;;17.90;82.10;;;;;;5072083;28;20033;-80
2021/05/10 06:18:35;;;;;;;1.05;0.22;;;17.90;82.30;;;;;;5074746;28;20499;-80
2021/05/10 06:21:05;;;;;;;1.38;0.30;;;17.90;83.30;;;;;;5074897;28;20028;-79
2021/05/10 06:23:32;;;;;;;2.10;0.30;;;18.00;83.50;;;;;;5072412;28;20537;-80
2021/05/10 06:25:57;;;;;;;0.73;0.25;;;18.00;84.00;;;;;;5073384;28;20404;-80
2021/05/10 06:28:23;;;;;;;0.70;0.30;;;18.10;83.30;;;;;;5073151;28;20028;-81
2021/05/10 06:30:49;;;;;;;1.52;0.30;;;18.10;83.20;;;;;;5073925;28;20066;-80
2021/05/10 06:33:14;;;;;;;1.00;0.38;;;18.20;83.90;;;;;;5072383;28;20040;-79
2021/05/10 06:35:40;;;;;;;0.60;0.40;;;18.20;82.90;;;;;;5072431;28;20622;-79
2021/05/10 06:38:05;;;;;;;4.00;1.15;;;18.20;83.10;;;;;;5074485;28;20017;-79
2021/05/10 06:40:31;;;;;;;1.92;0.30;;;18.20;82.80;;;;;;5072895;28;20103;-79
2021/05/10 06:42:57;;;;;;;1.23;0.30;;;18.20;82.60;;;;;;5073130;28;20021;-79
2021/05/10 06:45:22;;;;;;;1.15;0.40;;;18.20;82.30;;;;;;5072630;28;20492;-79
2021/05/10 06:47:48;;;;;;;1.65;0.50;;;18.20;82.50;;;;;;5074073;28;20027;-79
2021/05/10 06:50:14;;;;;;;2.35;0.43;;;18.10;83.30;;;;;;5074159;28;20383;-79
2021/05/10 06:52:40;;;;;;;0.70;0.32;;;18.10;82.90;;;;;;5074153;28;20479;-79
2021/05/10 06:55:07;;;;;;;1.85;0.30;;;18.10;83.20;;;;;;5074545;28;20048;-79
2021/05/10 06:57:33;;;;;;;1.50;0.50;;;18.10;83.40;;;;;;5072692;28;20047;-79
2021/05/10 06:59:59;;;;;;;0.85;0.40;;;18.10;83.10;;;;;;5073028;28;20650;-79
2021/05/10 07:02:25;;;;;;;1.35;0.40;;;18.10;83.50;;;;;;5073195;28;20025;-80
2021/05/10 07:04:51;;;;;;;1.50;0.60;;;18.20;83.20;;;;;;5072913;28;20024;-80
2021/05/10 07:07:17;;;;;;;1.63;0.50;;;18.10;82.50;;;;;;5073170;28;20033;-80
2021/05/10 07:09:43;;;;;;;2.08;0.90;;;18.10;82.80;;;;;;5074012;28;20451;-80
2021/05/10 07:12:11;;;;;;;2.65;0.80;;;18.00;82.80;;;;;;5074278;28;20028;-80
2021/05/10 07:14:36;;;;;;;0.75;0.57;;;17.90;82.10;;;;;;5072415;28;20024;-80
2021/05/10 07:17:02;;;;;;;4.30;0.80;;;17.90;82.30;;;;;;5072245;28;20070;-80
2021/05/10 07:19:27;;;;;;;1.48;0.68;;;17.90;83.20;;;;;;5073804;28;20025;-80
2021/05/10 07:21:54;;;;;;;2.63;0.70;;;18.00;83.30;;;;;;5072389;28;20400;-80
2021/05/10 07:24:19;;;;;;;2.95;0.70;;;17.90;83.00;;;;;;5072557;28;20024;-80
2021/05/10 07:26:45;;;;;;;1.08;0.68;;;18.10;84.10;;;;;;5072330;28;20032;-80
2021/05/10 07:29:11;;;;;;;1.92;0.80;;;18.10;83.50;;;;;;5072496;28;20031;-80
2021/05/10 07:31:36;;;;;;;7.60;1.17;;;18.10;82.50;;;;;;5073799;28;20029;-80
2021/05/10 07:34:02;;;;;;;3.22;1.10;;;18.10;83.40;;;;;;5073267;28;20044;-80
2021/05/10 07:36:28;;;;;;;1.58;0.73;;;18.10;83.70;;;;;;5071950;28;20119;-80
2021/05/10 07:38:53;;;;;;;6.22;0.90;;;18.20;83.90;;;;;;5072749;28;20023;-80
2021/05/10 07:41:19;;;;;;;2.63;0.95;;;18.20;84.40;;;;;;5071496;28;20380;-80
2021/05/10 07:43:45;;;;;;;4.88;0.80;;;18.20;83.40;;;;;;5088628;28;20024;-80
2021/05/10 07:46:11;;;;;;;5.78;1.00;;;18.20;84.70;;;;;;5088776;28;20029;-80
2021/05/10 07:48:36;;;;;;;3.50;0.90;;;18.20;84.40;;;;;;5088275;28;20052;-80
2021/05/10 07:51:02;;;;;;;1.42;0.82;;;18.10;83.90;;;;;;5073284;28;20050;-80
2021/05/10 07:53:29;;;;;;;2.90;0.90;;;17.90;84.00;;;;;;5073404;28;20028;-80
2021/05/10 07:55:54;;;;;;;2.72;0.88;;;17.80;84.20;;;;;;5073385;28;20024;-80
2021/05/10 07:58:24;;;;;;;1.60;0.70;;;17.60;85.00;;;;;;5073371;28;20021;-80
2021/05/10 08:00:54;;;;;;;3.10;1.00;;;17.50;86.20;;;;;;5073321;28;20021;-80
2021/05/10 08:03:22;;;;;;;3.63;0.70;;;17.50;86.40;;;;;;5088784;28;20158;-80
2021/05/10 08:05:47;;;;;;;2.85;1.08;;;17.50;87.00;;;;;;5071790;28;20032;-80
2021/05/10 08:08:17;;;;;;;1.75;0.93;;;17.50;86.30;;;;;;5073105;28;20472;-80
2021/05/10 08:10:43;;;;;;;2.28;0.65;;;17.50;86.30;;;;;;5073263;28;20028;-80
2021/05/10 08:13:09;;;;;;;2.95;0.80;;;17.60;86.50;;;;;;5072065;28;20033;-80
2021/05/10 08:15:35;;;;;;;3.42;0.90;;;17.40;86.90;;;;;;5072995;28;20026;-80
2021/05/10 08:18:00;;;;;;;1.98;0.65;;;17.40;87.40;;;;;;5072946;28;20031;-80
2021/05/10 08:20:26;;;;;;;2.15;1.02;;;17.40;88.50;;;;;;5071200;28;20365;-80
2021/05/10 08:22:52;;;;;;;3.67;1.00;;;17.10;91.50;;;;;;5072567;28;20013;-80
2021/05/10 08:25:17;;;;;;;1.00;0.70;;;16.50;92.70;;;;;;5072941;28;20036;-84
2021/05/10 08:27:43;;;;;;;2.78;1.02;;;16.40;93.60;;;;;;5072751;28;20029;-80
2021/05/10 08:30:10;;;;;;;3.75;1.60;;;16.40;94.00;;;;;;5072287;28;20060;-80
2021/05/10 08:32:36;;;;;;;3.45;1.10;;;16.50;94.00;;;;;;5072758;28;20107;-80
2021/05/10 08:35:03;;;;;;;2.05;1.10;;;16.70;93.40;;;;;;5072752;28;20471;-80
2021/05/10 08:37:29;;;;;;;2.00;1.10;;;16.90;93.00;;;;;;5072175;28;20063;-80
2021/05/10 08:39:56;;;;;;;2.03;1.10;;;17.00;92.60;;;;;;5071007;28;20056;-80
2021/05/10 08:42:21;;;;;;;3.78;0.90;;;17.00;92.10;;;;;;5051600;28;20112;-81
2021/05/10 08:44:47;;;;;;;2.47;0.90;;;17.10;91.50;;;;;;5051532;28;20632;-83
2021/05/10 08:47:13;;;;;;;1.55;0.90;;;17.10;91.40;;;;;;5052577;28;20025;-82
2021/05/10 08:49:38;;;;;;;2.58;1.10;;;17.20;91.60;;;;;;5053769;28;20025;-82
2021/05/10 08:52:04;;;;;;;1.73;0.90;;;17.20;90.90;;;;;;5070857;28;20020;-82
2021/05/10 08:54:31;;;;;;;2.35;1.00;;;17.20;90.20;;;;;;5071611;28;20020;-82
2021/05/10 08:57:00;;;;;;;3.10;1.10;;;17.20;90.20;;;;;;5071250;28;20052;-82
2021/05/10 08:59:26;;;;;;;1.70;0.97;;;17.30;90.30;;;;;;5072654;28;20066;-82
2021/05/10 09:02:09;;;;;;;1.23;0.90;;;17.30;89.30;;;;;;5072628;28;20267;-82
2021/05/10 09:04:40;;;;;;;1.17;0.80;;;17.30;89.10;;;;;;5072732;28;20146;-82
2021/05/10 09:07:20;;;;;;;1.58;0.80;;;17.30;88.60;;;;;;5071992;28;20036;-82
2021/05/10 09:10:06;;;;;;;2.25;1.20;;;17.30;89.00;;;;;;5072793;28;20100;-82
2021/05/10 09:12:42;;;;;;;4.10;1.38;;;17.30;87.10;;;;;;5072636;28;20051;-82
2021/05/10 09:15:28;;;;;;;1.40;1.17;;;17.30;87.40;;;;;;5072608;28;20511;-81
2021/05/10 09:18:02;;;;;;;1.50;0.98;;;17.30;87.40;;;;;;5051098;28;20052;-81
2021/05/10 09:20:30;;;;;;;2.05;1.50;;;17.40;86.80;;;;;;5051327;28;20036;-81
2021/05/10 09:22:58;;;;;;;1.58;0.98;;;17.30;86.80;;;;;;5052263;28;20025;-82
2021/05/10 09:25:35;;;;;;;2.30;1.60;;;17.30;87.00;;;;;;5052424;28;20120;-82
2021/05/10 09:28:20;;;;;;;2.25;1.30;;;17.30;86.20;;;;;;5051147;28;20024;-82
2021/05/10 09:30:48;;;;;;;2.80;1.30;;;17.40;87.40;;;;;;5055541;28;20021;-82
2021/05/10 09:33:26;;;;;;;2.17;1.13;;;17.30;86.70;;;;;;5071241;28;20041;-81
2021/05/10 09:35:51;;;;;;;2.45;1.05;;;17.40;87.10;;;;;;5056103;28;20025;-82
2021/05/10 09:38:22;;;;;;;2.92;1.05;;;17.50;88.60;;;;;;5055844;28;20021;-82
2021/05/10 09:40:54;;;;;;;2.03;1.08;;;17.50;89.80;;;;;;5054662;28;20120;-80
2021/05/10 09:43:25;;;;;;;2.22;1.30;;;17.50;90.20;;;;;;5088403;28;20107;-81
2021/05/10 09:45:59;;;;;;;2.28;1.60;;;17.60;90.10;;;;;;5091235;28;20032;-81
2021/05/10 09:48:34;;;;;;;1.80;1.23;;;17.50;90.30;;;;;;5088943;28;20031;-81
2021/05/10 09:51:04;;;;;;;2.28;1.15;;;17.50;90.30;;;;;;5070717;28;20031;-81
2021/05/10 09:53:45;;;;;;;3.83;1.50;;;17.50;90.50;;;;;;5074680;28;20487;-81
2021/05/10 09:56:35;;;;;;;2.20;1.60;;;17.50;90.80;;;;;;5073554;28;20076;-80
2021/05/10 09:59:12;;;;;;;2.35;1.30;;;17.50;90.40;;;;;;5075052;28;20012;-81
2021/05/10 10:01:45;;;;;;;4.50;1.40;;;17.50;90.40;;;;;;5074339;28;20107;-82
2021/05/10 10:04:12;;;;;;;2.42;1.45;;;17.40;89.90;;;;;;5074009;28;20020;-82
2021/05/10 10:06:38;;;;;;;3.47;1.30;;;17.30;90.50;;;;;;5075408;28;20078;-82
2021/05/10 10:09:05;;;;;;;2.13;1.20;;;17.30;90.30;;;;;;5074917;28;20032;-82
2021/05/10 10:11:32;;;;;;;1.85;1.65;;;17.30;90.50;;;;;;5073367;28;20169;-84
2021/05/10 10:13:59;;;;;;;5.38;2.42;;;17.30;90.90;;;;;;5054032;28;20035;-81
2021/05/10 10:16:29;;;;;;;2.80;1.65;;;17.30;90.10;;;;;;5065320;28;20031;-82
2021/05/10 10:19:00;;;;;;;5.20;1.45;;;17.30;90.00;;;;;;5075340;28;20021;-82
2021/05/10 10:21:27;;;;;;;3.92;2.03;;;17.30;90.30;;;;;;5073924;28;20089;-82
2021/05/10 10:23:55;;;;;;;3.22;1.35;;;17.40;89.70;;;;;;5073730;28;20028;-81
2021/05/10 10:26:22;;;;;;;3.13;1.70;;;17.50;90.10;;;;;;5074809;28;20395;-82
2021/05/10 10:28:49;;;;;;;2.65;1.50;;;17.50;89.60;;;;;;5073693;28;20024;-81
2021/05/10 10:31:26;;;;;;;3.05;1.70;;;17.50;89.50;;;;;;5073799;28;20060;-81
2021/05/10 10:33:58;;;;;;;2.90;1.65;;;17.70;89.80;;;;;;5073607;28;20082;-88
2021/05/10 10:36:27;;;;;;;3.13;1.58;;;17.70;89.70;;;;;;5073233;28;20483;-84
2021/05/10 10:39:12;;;;;;;6.20;1.60;;;17.70;88.10;;;;;;5081328;28;20166;-82
2021/05/10 10:42:05;;;;;;;2.25;1.15;;;17.70;87.70;;;;;;5073574;28;20020;-83
2021/05/10 10:44:45;;;;;;;2.25;1.30;;;17.50;87.70;;;;;;5074579;28;20025;-83
2021/05/10 10:47:36;;;;;;;4.18;1.90;;;17.40;89.00;;;;;;5072789;28;20480;-83
2021/05/10 10:50:03;;;;;;;3.42;1.92;;;17.40;91.00;;;;;;5074374;28;20064;-82
2021/05/10 10:52:30;;;;;;;2.55;1.80;;;17.30;91.20;;;;;;5071566;28;20039;-79
2021/05/10 10:55:18;;;;;;;3.72;2.00;;;17.20;92.00;;;;;;5071987;28;20025;-79
2021/05/10 10:57:44;;;;;;;3.83;2.25;;;17.10;92.50;;;;;;5064410;28;20447;-80
2021/05/10 11:00:18;;;;;;;4.10;2.05;;;17.00;92.00;;;;;;5069601;28;20031;-80
2021/05/10 11:02:54;;;;;;;3.60;2.60;;;16.90;91.80;;;;;;5087248;28;20046;-79
2021/05/10 11:05:21;;;;;;;3.50;3.00;;;16.80;92.10;;;;;;5082534;28;20024;-79
2021/05/10 11:07:50;;;;;;;5.05;3.90;;;16.40;92.00;;;;;;5073399;28;20427;-80
2021/05/10 11:10:41;;;;;;;4.80;3.47;;;15.90;93.30;;;;;;5069844;28;20027;-80
2021/05/10 11:13:10;;;;;;;5.80;4.57;;;15.60;94.40;;;;;;5071488;28;20087;-79
2021/05/10 11:15:36;;;;;;;5.65;4.75;;;15.30;96.20;;;;;;5072913;28;20021;-79
2021/05/10 11:18:02;;;;;;;6.40;5.25;;;15.10;97.30;;;;;;5072307;28;20024;-80
2021/05/10 11:20:41;;;;;;;5.50;4.90;;;15.00;98.40;;;;;;5069640;28;20050;-79
2021/05/10 11:23:25;;;;;;;5.60;4.23;;;14.80;99.60;;;;;;5071130;28;20020;-80
2021/05/10 11:25:52;;;;;;;5.43;4.70;;;14.70;99.90;;;;;;5071117;28;20266;-80
2021/05/10 11:28:24;;;;;;;5.50;4.72;;;14.60;99.90;;;;;;5071195;28;20024;-80
2021/05/10 11:31:00;;;;;;;5.20;4.00;;;14.70;99.90;;;;;;5069457;28;20025;-80
2021/05/10 11:33:53;;;;;;;5.18;4.00;;;14.80;99.90;;;;;;5067982;28;20404;-81
2021/05/10 11:36:30;;;;;;;4.28;3.50;;;14.90;99.90;;;;;;5070352;28;20058;-80
2021/05/10 11:39:02;;;;;;;6.22;3.88;;;15.00;99.90;;;;;;5068275;28;20051;-80
2021/05/10 11:41:38;;;;;;;4.25;3.88;;;15.10;99.90;;;;;;5073018;28;20042;-79
2021/05/10 11:44:06;;;;;;;4.25;3.80;;;15.20;99.90;;;;;;5071802;28;20052;-80
2021/05/10 11:46:39;;;;;;;6.15;3.45;;;15.30;99.90;;;;;;5071908;28;20025;-80
2021/05/10 11:49:10;;;;;;;3.38;3.08;;;15.60;99.90;;;;;;5070559;28;20028;-79
2021/05/10 11:51:38;;;;;;;2.95;2.55;;;15.70;99.60;;;;;;5070865;28;20020;-78
2021/05/10 11:54:08;;;;;;;2.63;2.38;;;16.00;99.40;;;;;;5072349;28;20099;-78
2021/05/10 11:56:44;;;;;;;2.13;1.85;;;16.40;99.10;;;;;;5071417;28;20028;-78
2021/05/10 11:59:33;;;;;;;3.28;2.13;;;16.90;98.10;;;;;;5072847;28;20472;-79
2021/05/10 12:02:21;;;;;;;3.38;1.67;;;17.20;96.20;;;;;;5073168;28;20574;-79
2021/05/10 12:05:05;;;;;;;3.28;2.30;;;17.50;95.30;;;;;;5071440;28;20025;-80
2021/05/10 12:07:32;;;;;;;3.25;2.17;;;17.80;94.80;;;;;;5071242;28;20028;-79
2021/05/10 12:10:02;;;;;;;2.90;2.03;;;18.30;93.90;;;;;;5071473;28;20032;-80
2021/05/10 12:12:35;;;;;;;2.83;1.48;;;19.10;93.50;;;;;;5072791;28;20040;-79
2021/05/10 12:15:08;;;;;;;2.25;1.45;;;20.60;92.40;;;;;;5072456;28;20031;-80
2021/05/10 12:17:34;;;;;;;1.73;1.10;;;22.10;88.20;;;;;;5070168;28;20060;-79
2021/05/10 12:20:01;;;;;;;1.30;1.00;;;23.20;82.10;;;;;;5071504;28;20044;-80
2021/05/10 12:22:44;;;;;;;1.55;0.90;;;24.50;78.10;;;;;;5071347;28;20024;-80
2021/05/10 12:25:15;;;;;;;1.55;0.80;;;24.80;73.80;;;;;;5072427;28;20036;-80
2021/05/10 12:27:44;;;;;;;1.85;0.85;;;23.90;72.70;;;;;;5071290;28;20094;-80
2021/05/10 12:30:19;;;;;;;1.98;1.00;;;23.00;74.40;;;;;;5067010;28;20037;-79
2021/05/10 12:32:51;;;;;;;1.30;0.93;;;22.50;75.90;;;;;;5072451;28;20032;-80
2021/05/10 12:35:20;;;;;;;1.67;1.05;;;22.10;77.40;;;;;;5077684;28;20495;-80
2021/05/10 12:37:47;;;;;;;2.35;1.33;;;22.00;77.50;;;;;;5052412;28;20078;-80
2021/05/10 12:40:15;;;;;;;1.30;1.08;;;21.70;77.50;;;;;;5054994;28;20036;-80
2021/05/10 12:42:42;;;;;;;1.70;1.05;;;21.80;78.00;;;;;;5067784;28;20021;-80
2021/05/10 12:45:14;;;;;;;2.28;1.20;;;21.80;77.50;;;;;;5086110;28;20023;-80
2021/05/10 12:47:40;;;;;;;2.33;1.65;;;21.60;76.70;;;;;;5077483;28;22084;-80
2021/05/10 12:50:07;;;;;;;1.60;1.20;;;21.20;77.70;;;;;;5070405;28;20029;-80
2021/05/10 12:52:49;;;;;;;1.88;1.10;;;21.00;79.20;;;;;;5088048;28;20021;-79
2021/05/10 12:55:20;;;;;;;1.75;1.33;;;20.90;78.80;;;;;;5087895;28;20463;-80
2021/05/10 12:57:47;;;;;;;1.67;1.10;;;20.70;79.50;;;;;;5071745;28;20027;-79
2021/05/10 13:00:35;;;;;;;1.50;1.38;;;20.50;79.90;;;;;;5070541;28;20017;-79